createdAt,value
2022-12-06T00:02:22.428Z,6.1
2022-12-06T00:07:22.343Z,6.2
2022-12-06T00:12:22.359Z,7.7
2022-12-06T00:17:22.336Z,6.0
2022-12-06T00:22:22.320Z,6.3
2022-12-06T00:27:22.324Z,7.5
2022-12-06T00:32:22.362Z,5.5
2022-12-06T00:37:22.333Z,5.8
2022-12-06T00:42:22.358Z,4.1
2022-12-06T00:47:22.334Z,6.7
2022-12-06T00:52:22.333Z,5.3
2022-12-06T00:57:22.348Z,4.9
2022-12-06T01:02:22.349Z,6.1
2022-12-06T01:07:22.340Z,4.4
2022-12-06T01:12:22.347Z,4.5
2022-12-06T01:17:22.353Z,4.1
2022-12-06T01:22:22.351Z,3.8
2022-12-06T01:27:22.353Z,4.7
2022-12-06T01:32:22.359Z,3.8
2022-12-06T01:37:22.550Z,4.8
2022-12-06T01:42:22.364Z,4.7
2022-12-06T01:47:22.369Z,4.0
2022-12-06T01:52:22.374Z,4.6
2022-12-06T01:57:22.366Z,4.8
2022-12-06T02:02:22.463Z,3.9
2022-12-06T02:07:22.377Z,4.0
2022-12-06T02:12:22.375Z,5.6
2022-12-06T02:17:22.380Z,4.7
2022-12-06T02:22:22.383Z,4.7
2022-12-06T02:27:22.417Z,4.8
2022-12-06T02:32:22.395Z,6.3
2022-12-06T02:37:22.715Z,5.5
2022-12-06T02:42:22.401Z,6.6
2022-12-06T02:47:22.423Z,5.5
2022-12-06T02:52:22.399Z,6.6
2022-12-06T02:57:22.406Z,5.5
2022-12-06T03:02:22.444Z,7.3
2022-12-06T03:07:22.406Z,5.8
2022-12-06T03:12:22.429Z,7.5
2022-12-06T03:17:22.416Z,6.6
2022-12-06T03:22:22.418Z,5.7
2022-12-06T03:27:22.438Z,7.7
2022-12-06T03:32:22.417Z,4.9
2022-12-06T03:37:22.425Z,6.7
2022-12-06T03:42:22.424Z,6.6
2022-12-06T03:47:22.433Z,6.2
2022-12-06T03:52:22.453Z,6.5
2022-12-06T03:57:22.453Z,6.6
2022-12-06T04:02:22.438Z,6.7
2022-12-06T04:07:22.455Z,9.6
2022-12-06T04:12:22.448Z,8.6
2022-12-06T04:17:22.468Z,8.6
2022-12-06T04:22:22.452Z,8.2
2022-12-06T04:27:22.452Z,6.7
2022-12-06T04:32:22.454Z,8.0
2022-12-06T04:37:22.454Z,8.1
2022-12-06T04:42:22.466Z,9.0
2022-12-06T04:47:22.461Z,7.4
2022-12-06T04:52:22.477Z,9.7
2022-12-06T04:57:22.466Z,11.5
2022-12-06T05:02:22.468Z,8.9
2022-12-06T05:07:22.475Z,9.2
2022-12-06T05:12:22.471Z,8.4
2022-12-06T05:17:22.478Z,8.1
2022-12-06T05:22:22.478Z,7.9
2022-12-06T05:27:22.485Z,8.2
2022-12-06T05:32:22.486Z,8.4
2022-12-06T05:37:22.486Z,11.9
2022-12-06T05:42:22.790Z,12.3
2022-12-06T05:47:22.490Z,10.9
2022-12-06T05:52:22.515Z,7.9
2022-12-06T05:57:22.499Z,9.7
2022-12-06T06:02:22.636Z,7.0
2022-12-06T06:07:22.500Z,11.0
2022-12-06T06:12:22.501Z,8.6
2022-12-06T06:17:22.505Z,7.0
2022-12-06T06:22:22.512Z,7.8
2022-12-06T06:27:22.511Z,6.3
2022-12-06T06:32:22.518Z,5.9
2022-12-06T06:37:22.523Z,7.0
2022-12-06T06:42:22.523Z,6.9
2022-12-06T06:47:22.523Z,7.2
2022-12-06T06:52:22.524Z,9.1
2022-12-06T06:57:22.523Z,6.2
2022-12-06T07:02:22.651Z,9.5
2022-12-06T07:07:22.550Z,7.1
2022-12-06T07:22:22.543Z,7.1
2022-12-06T07:27:22.539Z,8.9
2022-12-06T07:32:22.558Z,8.4
2022-12-06T07:37:22.557Z,8.2
2022-12-06T07:42:22.545Z,9.6
2022-12-06T07:47:22.606Z,7.2
2022-12-06T07:52:22.556Z,8.1
2022-12-06T07:57:22.560Z,6.1
2022-12-06T08:02:22.557Z,6.3
2022-12-06T08:07:22.565Z,5.0
2022-12-06T08:12:22.557Z,6.8
2022-12-06T08:17:22.560Z,5.2
2022-12-06T08:22:22.571Z,6.8
2022-12-06T08:27:22.584Z,8.4
2022-12-06T08:32:22.585Z,4.7
2022-12-06T08:37:22.578Z,5.0
2022-12-06T08:42:25.323Z,5.4
2022-12-06T08:47:22.584Z,5.5
2022-12-06T08:52:22.600Z,6.4
2022-12-06T08:57:22.590Z,4.5
2022-12-06T09:02:22.729Z,5.6
2022-12-06T09:07:22.600Z,4.5
2022-12-06T09:12:22.604Z,5.5
2022-12-06T09:17:22.596Z,5.3
2022-12-06T09:22:22.601Z,8.4
2022-12-06T09:27:22.608Z,4.0
2022-12-06T09:32:22.611Z,4.7
2022-12-06T09:37:22.613Z,4.9
2022-12-06T09:42:22.610Z,5.1
2022-12-06T09:47:22.629Z,4.3
2022-12-06T09:52:22.647Z,4.1
2022-12-06T09:57:22.624Z,6.2
2022-12-06T10:02:22.626Z,4.1
2022-12-06T10:07:22.635Z,4.1
2022-12-06T10:12:22.625Z,4.8
2022-12-06T10:17:22.629Z,3.6
2022-12-06T10:22:22.644Z,3.8
2022-12-06T10:27:22.645Z,5.0
2022-12-06T10:32:22.637Z,3.5
2022-12-06T10:37:22.645Z,4.7
2022-12-06T10:42:22.653Z,4.2
2022-12-06T10:47:22.651Z,10.8
2022-12-06T10:52:22.666Z,3.8
2022-12-06T10:57:22.646Z,3.9
2022-12-06T11:07:22.658Z,4.2
2022-12-06T11:12:25.354Z,4.2
2022-12-06T11:17:22.748Z,5.1
2022-12-06T11:22:22.674Z,4.4
2022-12-06T11:27:22.683Z,4.4
2022-12-06T11:32:22.766Z,4.0
2022-12-06T11:37:22.679Z,4.3
2022-12-06T11:42:22.686Z,2.5
2022-12-06T11:47:22.755Z,3.0
2022-12-06T11:52:22.691Z,4.6
2022-12-06T11:57:23.012Z,4.6
2022-12-06T12:02:22.768Z,3.1
2022-12-06T12:07:22.700Z,4.5
2022-12-06T12:12:22.704Z,3.9
2022-12-06T12:17:22.700Z,3.6
2022-12-06T12:22:22.702Z,3.3
2022-12-06T12:27:28.319Z,3.3
2022-12-06T12:32:22.712Z,4.8
2022-12-06T12:37:22.718Z,4.0
2022-12-06T12:42:22.722Z,2.6
2022-12-06T12:47:22.720Z,5.6
2022-12-06T12:52:22.720Z,3.2
2022-12-06T12:57:22.734Z,3.8
2022-12-06T13:02:22.789Z,4.5
2022-12-06T13:07:22.728Z,7.5
2022-12-06T13:12:22.750Z,2.6
2022-12-06T13:17:22.743Z,3.8
2022-12-06T13:22:22.739Z,3.3
2022-12-06T13:27:22.748Z,3.2
2022-12-06T13:32:22.749Z,4.6
2022-12-06T13:37:22.749Z,4.8
2022-12-06T13:42:22.751Z,3.4
2022-12-06T13:47:22.757Z,3.3
2022-12-06T13:52:22.767Z,5.4
2022-12-06T13:57:22.774Z,3.1
2022-12-06T14:02:22.818Z,4.1
2022-12-06T14:07:22.925Z,3.8
2022-12-06T14:12:22.772Z,2.7
2022-12-06T14:17:59.249Z,4.7
2022-12-06T14:22:22.907Z,3.8
2022-12-06T14:27:22.776Z,9.3
2022-12-06T14:32:22.782Z,5.1
2022-12-06T14:37:22.783Z,6.4
2022-12-06T14:42:22.781Z,5.3
2022-12-06T14:47:22.863Z,4.7
2022-12-06T14:52:22.785Z,4.9
2022-12-06T14:57:22.899Z,4.8
2022-12-06T15:02:22.850Z,3.7
2022-12-06T15:07:22.791Z,5.0
2022-12-06T15:12:22.799Z,3.7
2022-12-06T15:17:22.800Z,4.9
2022-12-06T15:22:25.238Z,3.2
2022-12-06T15:27:22.805Z,3.0
2022-12-06T15:32:22.801Z,6.3
2022-12-06T15:42:22.813Z,3.8
2022-12-06T15:47:22.840Z,5.8
2022-12-06T15:52:22.820Z,4.0
2022-12-06T15:57:22.836Z,4.2
2022-12-06T16:02:22.915Z,3.7
2022-12-06T16:07:22.822Z,3.8
2022-12-06T16:12:22.823Z,5.0
2022-12-06T16:17:22.832Z,6.2
2022-12-06T16:22:22.842Z,4.9
2022-12-06T16:27:22.840Z,4.8
2022-12-06T16:32:22.829Z,5.4
2022-12-06T16:37:22.839Z,6.2
2022-12-06T16:42:22.837Z,5.8
2022-12-06T16:52:22.844Z,6.6
2022-12-06T16:57:22.849Z,4.7
2022-12-06T17:02:22.848Z,8.5
2022-12-06T17:07:22.844Z,6.1
2022-12-06T17:12:22.853Z,6.7
2022-12-06T17:17:22.862Z,6.6
2022-12-06T17:22:22.854Z,6.4
2022-12-06T17:27:22.870Z,7.4
2022-12-06T17:32:22.924Z,7.9
2022-12-06T17:37:22.870Z,6.7
2022-12-06T17:42:22.867Z,7.0
2022-12-06T17:47:22.870Z,5.8
2022-12-06T17:52:22.877Z,7.0
2022-12-06T17:57:22.873Z,6.6
2022-12-06T18:02:22.953Z,7.9
2022-12-06T18:07:22.991Z,6.5
2022-12-06T18:12:22.881Z,7.8
2022-12-06T18:17:22.876Z,11.7
2022-12-06T18:22:22.886Z,10.9
2022-12-06T18:27:22.891Z,7.4
2022-12-06T18:32:22.895Z,7.5
2022-12-06T18:37:22.892Z,9.9
2022-12-06T18:42:22.895Z,7.1
2022-12-06T18:47:22.929Z,6.1
2022-12-06T18:52:22.959Z,8.9
2022-12-06T18:57:26.308Z,9.0
2022-12-06T19:02:23.008Z,8.0
2022-12-06T19:07:25.081Z,7.4
2022-12-06T19:12:22.920Z,7.0
2022-12-06T19:17:22.912Z,8.7
2022-12-06T19:22:22.952Z,9.1
2022-12-06T19:27:22.913Z,8.1
2022-12-06T19:32:23.243Z,6.9
2022-12-06T19:37:22.922Z,7.0
2022-12-06T19:42:22.924Z,9.6
2022-12-06T19:47:22.927Z,8.4
2022-12-06T19:52:26.572Z,8.9
2022-12-06T19:57:22.947Z,9.6
2022-12-06T20:02:23.343Z,8.3
2022-12-06T20:07:22.944Z,8.1
2022-12-06T20:12:22.936Z,8.1
2022-12-06T20:17:22.937Z,10.2
2022-12-06T20:22:22.998Z,7.9
2022-12-06T20:27:22.940Z,11.1
2022-12-06T20:32:22.946Z,8.9
2022-12-06T20:37:22.948Z,7.5
2022-12-06T20:42:22.948Z,8.1
2022-12-06T20:47:22.956Z,8.5
2022-12-06T20:52:22.961Z,8.7
2022-12-06T20:57:22.963Z,10.0
2022-12-06T21:02:23.016Z,10.2
2022-12-06T21:07:22.960Z,10.7
2022-12-06T21:12:22.984Z,10.1
2022-12-06T21:17:23.023Z,8.2
2022-12-06T21:22:22.974Z,8.9
2022-12-06T21:27:22.984Z,9.1
2022-12-06T21:32:22.976Z,8.7
2022-12-06T21:37:23.107Z,8.9
2022-12-06T21:42:22.980Z,8.9
2022-12-06T21:47:22.989Z,10.3
2022-12-06T21:52:22.990Z,10.0
2022-12-06T21:57:23.050Z,8.3
2022-12-06T22:02:23.050Z,9.9
2022-12-06T22:07:23.001Z,11.8
2022-12-06T22:12:22.998Z,12.0
2022-12-06T22:17:23.018Z,11.8
2022-12-06T22:22:23.004Z,10.7
2022-12-06T22:27:23.046Z,12.6
2022-12-06T22:37:28.389Z,10.5
2022-12-06T22:42:23.013Z,14.0
2022-12-06T22:47:23.013Z,11.5
2022-12-06T22:52:23.019Z,11.2
2022-12-06T22:57:23.023Z,11.4
2022-12-06T23:02:23.092Z,11.5
2022-12-06T23:07:23.024Z,11.0
2022-12-06T23:12:23.030Z,12.6
2022-12-06T23:17:23.024Z,11.6
2022-12-06T23:22:23.053Z,12.0
2022-12-06T23:27:23.036Z,11.1
2022-12-06T23:32:23.066Z,9.6
2022-12-06T23:37:23.039Z,11.6
2022-12-06T23:42:23.051Z,11.8
2022-12-06T23:47:23.041Z,11.6
2022-12-06T23:52:23.057Z,10.3
2022-12-06T23:57:23.054Z,11.0
